sensor_id;sensor_type;location;lat;lon;timestamp;P1;durP1;ratioP1;P2;durP2;ratioP2
25207;SDS011;13153;52.316;21.166;2023-10-09T00:01:49;9.52;;;4.43;;
25207;SDS011;13153;52.316;21.166;2023-10-09T00:04:17;10.95;;;4.20;;
25207;SDS011;13153;52.316;21.166;2023-10-09T00:06:43;8.60;;;4.18;;
25207;SDS011;13153;52.316;21.166;2023-10-09T00:09:09;9.82;;;4.10;;
25207;SDS011;13153;52.316;21.166;2023-10-09T00:11:47;8.88;;;4.00;;
25207;SDS011;13153;52.316;21.166;2023-10-09T00:14:13;10.00;;;4.22;;
25207;SDS011;13153;52.316;21.166;2023-10-09T00:16:43;8.07;;;4.38;;
25207;SDS011;13153;52.316;21.166;2023-10-09T00:19:13;9.00;;;4.40;;
25207;SDS011;13153;52.316;21.166;2023-10-09T00:21:48;11.77;;;4.68;;
25207;SDS011;13153;52.316;21.166;2023-10-09T00:24:15;11.25;;;4.60;;
25207;SDS011;13153;52.316;21.166;2023-10-09T00:26:48;10.05;;;4.70;;
25207;SDS011;13153;52.316;21.166;2023-10-09T00:29:26;11.00;;;4.18;;
25207;SDS011;13153;52.316;21.166;2023-10-09T00:31:59;11.30;;;4.50;;
25207;SDS011;13153;52.316;21.166;2023-10-09T00:34:38;14.43;;;5.20;;
25207;SDS011;13153;52.316;21.166;2023-10-09T00:37:11;11.38;;;4.97;;
25207;SDS011;13153;52.316;21.166;2023-10-09T00:39:50;11.75;;;4.53;;
25207;SDS011;13153;52.316;21.166;2023-10-09T00:42:23;15.40;;;5.47;;
25207;SDS011;13153;52.316;21.166;2023-10-09T00:44:57;12.10;;;4.75;;
25207;SDS011;13153;52.316;21.166;2023-10-09T00:50:02;11.70;;;4.93;;
25207;SDS011;13153;52.316;21.166;2023-10-09T00:52:41;9.75;;;4.90;;
25207;SDS011;13153;52.316;21.166;2023-10-09T00:55:19;11.70;;;4.72;;
25207;SDS011;13153;52.316;21.166;2023-10-09T00:58:05;14.80;;;4.88;;
25207;SDS011;13153;52.316;21.166;2023-10-09T01:00:37;12.15;;;4.70;;
25207;SDS011;13153;52.316;21.166;2023-10-09T01:03:11;10.60;;;4.93;;
25207;SDS011;13153;52.316;21.166;2023-10-09T01:05:41;12.98;;;4.55;;
25207;SDS011;13153;52.316;21.166;2023-10-09T01:08:32;11.98;;;4.80;;
25207;SDS011;13153;52.316;21.166;2023-10-09T01:13:49;11.48;;;4.90;;
25207;SDS011;13153;52.316;21.166;2023-10-09T01:16:19;10.15;;;4.82;;
25207;SDS011;13153;52.316;21.166;2023-10-09T01:18:48;10.73;;;5.07;;
25207;SDS011;13153;52.316;21.166;2023-10-09T01:21:22;10.50;;;5.18;;
25207;SDS011;13153;52.316;21.166;2023-10-09T01:23:52;11.23;;;5.00;;
25207;SDS011;13153;52.316;21.166;2023-10-09T01:26:40;11.15;;;5.22;;
25207;SDS011;13153;52.316;21.166;2023-10-09T01:29:15;11.30;;;5.15;;
25207;SDS011;13153;52.316;21.166;2023-10-09T01:31:50;12.90;;;5.47;;
25207;SDS011;13153;52.316;21.166;2023-10-09T01:34:21;13.82;;;5.88;;
25207;SDS011;13153;52.316;21.166;2023-10-09T01:37:11;13.70;;;5.32;;
25207;SDS011;13153;52.316;21.166;2023-10-09T01:39:48;9.90;;;4.93;;
25207;SDS011;13153;52.316;21.166;2023-10-09T01:44:54;11.75;;;5.57;;
25207;SDS011;13153;52.316;21.166;2023-10-09T01:47:23;12.10;;;5.57;;
25207;SDS011;13153;52.316;21.166;2023-10-09T01:49:50;12.60;;;5.53;;
25207;SDS011;13153;52.316;21.166;2023-10-09T01:52:18;10.38;;;5.10;;
25207;SDS011;13153;52.316;21.166;2023-10-09T01:54:45;13.55;;;6.25;;
25207;SDS011;13153;52.316;21.166;2023-10-09T01:57:16;11.52;;;5.43;;
25207;SDS011;13153;52.316;21.166;2023-10-09T01:59:47;14.80;;;5.60;;
25207;SDS011;13153;52.316;21.166;2023-10-09T02:02:15;10.73;;;4.78;;
25207;SDS011;13153;52.316;21.166;2023-10-09T02:05:03;11.90;;;5.45;;
25207;SDS011;13153;52.316;21.166;2023-10-09T02:07:36;11.80;;;5.38;;
25207;SDS011;13153;52.316;21.166;2023-10-09T02:10:08;11.65;;;5.40;;
25207;SDS011;13153;52.316;21.166;2023-10-09T02:12:52;12.18;;;5.45;;
25207;SDS011;13153;52.316;21.166;2023-10-09T02:15:25;14.27;;;5.13;;
25207;SDS011;13153;52.316;21.166;2023-10-09T02:18:10;12.60;;;4.97;;
25207;SDS011;13153;52.316;21.166;2023-10-09T02:20:48;14.10;;;5.00;;
25207;SDS011;13153;52.316;21.166;2023-10-09T02:23:29;11.82;;;5.03;;
25207;SDS011;13153;52.316;21.166;2023-10-09T02:26:15;13.13;;;5.72;;
25207;SDS011;13153;52.316;21.166;2023-10-09T02:29:05;13.32;;;5.55;;
25207;SDS011;13153;52.316;21.166;2023-10-09T02:31:34;11.75;;;5.40;;
25207;SDS011;13153;52.316;21.166;2023-10-09T02:34:08;10.35;;;4.60;;
25207;SDS011;13153;52.316;21.166;2023-10-09T02:36:35;14.60;;;5.53;;
25207;SDS011;13153;52.316;21.166;2023-10-09T02:39:08;14.30;;;5.18;;
25207;SDS011;13153;52.316;21.166;2023-10-09T02:41:52;10.85;;;5.00;;
25207;SDS011;13153;52.316;21.166;2023-10-09T02:44:25;13.43;;;5.60;;
25207;SDS011;13153;52.316;21.166;2023-10-09T02:46:52;13.60;;;5.95;;
25207;SDS011;13153;52.316;21.166;2023-10-09T02:49:24;14.30;;;5.88;;
25207;SDS011;13153;52.316;21.166;2023-10-09T02:51:51;13.27;;;5.78;;
25207;SDS011;13153;52.316;21.166;2023-10-09T02:54:20;15.30;;;6.00;;
25207;SDS011;13153;52.316;21.166;2023-10-09T02:56:49;11.60;;;5.50;;
25207;SDS011;13153;52.316;21.166;2023-10-09T02:59:21;13.68;;;5.57;;
25207;SDS011;13153;52.316;21.166;2023-10-09T03:01:48;13.15;;;5.70;;
25207;SDS011;13153;52.316;21.166;2023-10-09T03:04:17;13.82;;;5.50;;
25207;SDS011;13153;52.316;21.166;2023-10-09T03:06:44;13.38;;;5.68;;
25207;SDS011;13153;52.316;21.166;2023-10-09T03:09:19;11.95;;;5.50;;
25207;SDS011;13153;52.316;21.166;2023-10-09T03:11:53;10.60;;;5.07;;
25207;SDS011;13153;52.316;21.166;2023-10-09T03:14:28;11.15;;;4.97;;
25207;SDS011;13153;52.316;21.166;2023-10-09T03:16:56;14.20;;;5.40;;
25207;SDS011;13153;52.316;21.166;2023-10-09T03:19:26;11.18;;;4.97;;
25207;SDS011;13153;52.316;21.166;2023-10-09T03:22:02;9.93;;;5.40;;
25207;SDS011;13153;52.316;21.166;2023-10-09T03:24:31;10.68;;;5.07;;
25207;SDS011;13153;52.316;21.166;2023-10-09T03:26:57;11.52;;;5.00;;
25207;SDS011;13153;52.316;21.166;2023-10-09T03:29:23;11.63;;;4.60;;
25207;SDS011;13153;52.316;21.166;2023-10-09T03:31:49;9.15;;;4.38;;
25207;SDS011;13153;52.316;21.166;2023-10-09T03:34:16;12.45;;;5.32;;
25207;SDS011;13153;52.316;21.166;2023-10-09T03:36:43;11.60;;;5.07;;
25207;SDS011;13153;52.316;21.166;2023-10-09T03:39:13;10.77;;;4.85;;
25207;SDS011;13153;52.316;21.166;2023-10-09T03:41:57;9.88;;;4.75;;
25207;SDS011;13153;52.316;21.166;2023-10-09T03:44:24;11.88;;;5.15;;
25207;SDS011;13153;52.316;21.166;2023-10-09T03:46:55;14.05;;;4.68;;
25207;SDS011;13153;52.316;21.166;2023-10-09T03:49:21;11.02;;;4.53;;
25207;SDS011;13153;52.316;21.166;2023-10-09T03:51:51;10.07;;;4.90;;
25207;SDS011;13153;52.316;21.166;2023-10-09T03:54:17;9.85;;;5.00;;
25207;SDS011;13153;52.316;21.166;2023-10-09T03:56:47;12.50;;;4.90;;
25207;SDS011;13153;52.316;21.166;2023-10-09T03:59:20;12.27;;;5.22;;
25207;SDS011;13153;52.316;21.166;2023-10-09T04:01:49;15.00;;;5.10;;
25207;SDS011;13153;52.316;21.166;2023-10-09T04:04:17;9.35;;;4.50;;
25207;SDS011;13153;52.316;21.166;2023-10-09T04:06:47;11.88;;;5.05;;
25207;SDS011;13153;52.316;21.166;2023-10-09T04:09:13;11.50;;;4.75;;
25207;SDS011;13153;52.316;21.166;2023-10-09T04:11:52;11.00;;;4.97;;
25207;SDS011;13153;52.316;21.166;2023-10-09T04:14:35;13.13;;;5.68;;
25207;SDS011;13153;52.316;21.166;2023-10-09T04:17:12;11.98;;;5.45;;
25207;SDS011;13153;52.316;21.166;2023-10-09T04:19:49;11.73;;;5.28;;
25207;SDS011;13153;52.316;21.166;2023-10-09T04:22:34;11.57;;;5.18;;
25207;SDS011;13153;52.316;21.166;2023-10-09T04:25:15;11.52;;;5.07;;
25207;SDS011;13153;52.316;21.166;2023-10-09T04:27:57;13.13;;;5.50;;
25207;SDS011;13153;52.316;21.166;2023-10-09T04:30:42;10.38;;;5.25;;
25207;SDS011;13153;52.316;21.166;2023-10-09T04:33:09;11.73;;;5.07;;
25207;SDS011;13153;52.316;21.166;2023-10-09T04:35:36;11.85;;;5.68;;
25207;SDS011;13153;52.316;21.166;2023-10-09T04:38:03;10.23;;;5.10;;
25207;SDS011;13153;52.316;21.166;2023-10-09T04:40:32;14.65;;;5.18;;
25207;SDS011;13153;52.316;21.166;2023-10-09T04:43:13;11.80;;;5.25;;
25207;SDS011;13153;52.316;21.166;2023-10-09T04:45:46;10.98;;;4.93;;
25207;SDS011;13153;52.316;21.166;2023-10-09T04:48:45;12.50;;;5.40;;
25207;SDS011;13153;52.316;21.166;2023-10-09T04:51:11;11.32;;;5.82;;
25207;SDS011;13153;52.316;21.166;2023-10-09T04:53:49;11.38;;;5.20;;
25207;SDS011;13153;52.316;21.166;2023-10-09T04:56:15;15.13;;;5.47;;
25207;SDS011;13153;52.316;21.166;2023-10-09T04:58:41;10.10;;;4.90;;
25207;SDS011;13153;52.316;21.166;2023-10-09T05:01:09;9.35;;;4.80;;
25207;SDS011;13153;52.316;21.166;2023-10-09T05:03:39;14.18;;;6.00;;
25207;SDS011;13153;52.316;21.166;2023-10-09T05:06:05;14.20;;;6.75;;
25207;SDS011;13153;52.316;21.166;2023-10-09T05:09:07;13.40;;;5.40;;
25207;SDS011;13153;52.316;21.166;2023-10-09T05:11:34;9.73;;;5.13;;
25207;SDS011;13153;52.316;21.166;2023-10-09T05:14:21;14.20;;;5.78;;
25207;SDS011;13153;52.316;21.166;2023-10-09T05:17:03;14.50;;;5.95;;
25207;SDS011;13153;52.316;21.166;2023-10-09T05:19:34;11.07;;;6.00;;
25207;SDS011;13153;52.316;21.166;2023-10-09T05:22:18;13.43;;;6.15;;
25207;SDS011;13153;52.316;21.166;2023-10-09T05:25:01;14.20;;;5.95;;
25207;SDS011;13153;52.316;21.166;2023-10-09T05:27:36;11.23;;;5.93;;
25207;SDS011;13153;52.316;21.166;2023-10-09T05:30:15;10.50;;;6.07;;
25207;SDS011;13153;52.316;21.166;2023-10-09T05:33:00;13.90;;;5.72;;
25207;SDS011;13153;52.316;21.166;2023-10-09T05:35:44;13.73;;;5.78;;
25207;SDS011;13153;52.316;21.166;2023-10-09T05:38:30;13.50;;;5.85;;
25207;SDS011;13153;52.316;21.166;2023-10-09T05:41:00;11.90;;;5.80;;
25207;SDS011;13153;52.316;21.166;2023-10-09T05:43:47;11.93;;;6.20;;
25207;SDS011;13153;52.316;21.166;2023-10-09T05:46:31;11.27;;;5.50;;
25207;SDS011;13153;52.316;21.166;2023-10-09T05:49:00;12.45;;;5.55;;
25207;SDS011;13153;52.316;21.166;2023-10-09T05:51:35;11.60;;;5.55;;
25207;SDS011;13153;52.316;21.166;2023-10-09T05:54:07;14.43;;;5.53;;
25207;SDS011;13153;52.316;21.166;2023-10-09T05:57:08;15.75;;;6.22;;
25207;SDS011;13153;52.316;21.166;2023-10-09T05:59:52;15.27;;;6.47;;
25207;SDS011;13153;52.316;21.166;2023-10-09T06:02:36;13.93;;;6.68;;
25207;SDS011;13153;52.316;21.166;2023-10-09T06:05:20;19.17;;;7.13;;
25207;SDS011;13153;52.316;21.166;2023-10-09T06:08:04;15.80;;;7.07;;
25207;SDS011;13153;52.316;21.166;2023-10-09T06:10:31;13.40;;;6.28;;
25207;SDS011;13153;52.316;21.166;2023-10-09T06:13:05;16.17;;;6.75;;
25207;SDS011;13153;52.316;21.166;2023-10-09T06:15:36;14.00;;;6.20;;
25207;SDS011;13153;52.316;21.166;2023-10-09T06:18:15;13.77;;;6.75;;
25207;SDS011;13153;52.316;21.166;2023-10-09T06:20:57;19.20;;;7.75;;
25207;SDS011;13153;52.316;21.166;2023-10-09T06:23:42;19.30;;;7.57;;
25207;SDS011;13153;52.316;21.166;2023-10-09T06:26:26;17.40;;;7.40;;
25207;SDS011;13153;52.316;21.166;2023-10-09T06:28:52;15.23;;;7.65;;
25207;SDS011;13153;52.316;21.166;2023-10-09T06:31:38;15.98;;;7.35;;
25207;SDS011;13153;52.316;21.166;2023-10-09T06:34:22;15.30;;;7.50;;
25207;SDS011;13153;52.316;21.166;2023-10-09T06:36:57;20.23;;;7.65;;
25207;SDS011;13153;52.316;21.166;2023-10-09T06:39:31;17.25;;;8.05;;
25207;SDS011;13153;52.316;21.166;2023-10-09T06:42:18;21.00;;;8.93;;
25207;SDS011;13153;52.316;21.166;2023-10-09T06:50:20;19.20;;;8.27;;
25207;SDS011;13153;52.316;21.166;2023-10-09T06:52:51;23.63;;;8.55;;
25207;SDS011;13153;52.316;21.166;2023-10-09T06:55:35;19.67;;;8.75;;
25207;SDS011;13153;52.316;21.166;2023-10-09T06:58:13;14.52;;;7.20;;
25207;SDS011;13153;52.316;21.166;2023-10-09T07:00:50;25.40;;;8.07;;
25207;SDS011;13153;52.316;21.166;2023-10-09T07:03:19;19.70;;;7.30;;
25207;SDS011;13153;52.316;21.166;2023-10-09T07:06:04;15.80;;;7.00;;
25207;SDS011;13153;52.316;21.166;2023-10-09T07:08:35;18.13;;;7.45;;
25207;SDS011;13153;52.316;21.166;2023-10-09T07:11:09;16.58;;;6.63;;
25207;SDS011;13153;52.316;21.166;2023-10-09T07:17:03;16.27;;;7.10;;
25207;SDS011;13153;52.316;21.166;2023-10-09T07:19:51;16.42;;;6.55;;
25207;SDS011;13153;52.316;21.166;2023-10-09T07:22:23;14.75;;;7.22;;
25207;SDS011;13153;52.316;21.166;2023-10-09T07:24:55;12.70;;;6.75;;
25207;SDS011;13153;52.316;21.166;2023-10-09T07:27:28;16.80;;;6.93;;
25207;SDS011;13153;52.316;21.166;2023-10-09T07:30:24;13.75;;;6.25;;
25207;SDS011;13153;52.316;21.166;2023-10-09T07:32:57;22.00;;;6.75;;
25207;SDS011;13153;52.316;21.166;2023-10-09T07:35:36;14.75;;;7.13;;
25207;SDS011;13153;52.316;21.166;2023-10-09T07:38:07;12.38;;;6.60;;
25207;SDS011;13153;52.316;21.166;2023-10-09T07:40:54;13.48;;;6.43;;
25207;SDS011;13153;52.316;21.166;2023-10-09T07:46:07;15.35;;;6.95;;
25207;SDS011;13153;52.316;21.166;2023-10-09T07:48:54;12.40;;;6.03;;
25207;SDS011;13153;52.316;21.166;2023-10-09T07:51:23;18.63;;;5.93;;
25207;SDS011;13153;52.316;21.166;2023-10-09T07:53:56;13.60;;;6.40;;
25207;SDS011;13153;52.316;21.166;2023-10-09T07:56:32;13.48;;;5.95;;
25207;SDS011;13153;52.316;21.166;2023-10-09T07:59:12;15.10;;;6.57;;
25207;SDS011;13153;52.316;21.166;2023-10-09T08:01:46;13.93;;;6.10;;
25207;SDS011;13153;52.316;21.166;2023-10-09T08:04:21;18.48;;;6.30;;
25207;SDS011;13153;52.316;21.166;2023-10-09T08:07:08;19.27;;;6.53;;
25207;SDS011;13153;52.316;21.166;2023-10-09T08:09:44;14.57;;;6.40;;
25207;SDS011;13153;52.316;21.166;2023-10-09T08:12:36;15.63;;;6.07;;
25207;SDS011;13153;52.316;21.166;2023-10-09T08:15:15;13.13;;;5.88;;
25207;SDS011;13153;52.316;21.166;2023-10-09T08:17:44;17.20;;;6.75;;
25207;SDS011;13153;52.316;21.166;2023-10-09T08:20:16;17.52;;;6.25;;
25207;SDS011;13153;52.316;21.166;2023-10-09T08:22:42;19.13;;;6.82;;
25207;SDS011;13153;52.316;21.166;2023-10-09T08:25:09;15.95;;;6.20;;
25207;SDS011;13153;52.316;21.166;2023-10-09T08:27:54;15.48;;;6.13;;
25207;SDS011;13153;52.316;21.166;2023-10-09T08:30:44;12.70;;;5.93;;
25207;SDS011;13153;52.316;21.166;2023-10-09T08:33:17;11.88;;;5.72;;
25207;SDS011;13153;52.316;21.166;2023-10-09T08:35:49;9.77;;;5.30;;
25207;SDS011;13153;52.316;21.166;2023-10-09T08:38:16;11.70;;;5.90;;
25207;SDS011;13153;52.316;21.166;2023-10-09T08:40:50;12.23;;;5.43;;
25207;SDS011;13153;52.316;21.166;2023-10-09T08:43:23;13.13;;;5.90;;
25207;SDS011;13153;52.316;21.166;2023-10-09T08:45:49;13.25;;;5.65;;
25207;SDS011;13153;52.316;21.166;2023-10-09T08:48:26;10.68;;;5.15;;
25207;SDS011;13153;52.316;21.166;2023-10-09T08:50:53;14.35;;;4.72;;
25207;SDS011;13153;52.316;21.166;2023-10-09T08:53:21;13.88;;;4.75;;
25207;SDS011;13153;52.316;21.166;2023-10-09T08:55:49;11.88;;;4.60;;
25207;SDS011;13153;52.316;21.166;2023-10-09T08:58:16;11.07;;;5.18;;
25207;SDS011;13153;52.316;21.166;2023-10-09T09:00:57;10.25;;;4.82;;
25207;SDS011;13153;52.316;21.166;2023-10-09T09:03:25;8.63;;;4.32;;
25207;SDS011;13153;52.316;21.166;2023-10-09T09:05:58;7.22;;;3.75;;
25207;SDS011;13153;52.316;21.166;2023-10-09T09:08:26;8.32;;;3.90;;
25207;SDS011;13153;52.316;21.166;2023-10-09T09:11:07;15.95;;;4.32;;
25207;SDS011;13153;52.316;21.166;2023-10-09T09:13:41;8.00;;;3.67;;
25207;SDS011;13153;52.316;21.166;2023-10-09T09:16:21;7.13;;;3.50;;
25207;SDS011;13153;52.316;21.166;2023-10-09T09:18:55;7.13;;;3.33;;
25207;SDS011;13153;52.316;21.166;2023-10-09T09:21:28;10.27;;;3.67;;
25207;SDS011;13153;52.316;21.166;2023-10-09T09:24:02;7.00;;;3.20;;
25207;SDS011;13153;52.316;21.166;2023-10-09T09:26:35;8.95;;;3.30;;
25207;SDS011;13153;52.316;21.166;2023-10-09T09:29:05;5.63;;;3.30;;
25207;SDS011;13153;52.316;21.166;2023-10-09T09:31:35;9.27;;;3.38;;
25207;SDS011;13153;52.316;21.166;2023-10-09T09:34:03;9.52;;;3.33;;
25207;SDS011;13153;52.316;21.166;2023-10-09T09:39:18;8.40;;;4.07;;
25207;SDS011;13153;52.316;21.166;2023-10-09T09:41:53;6.50;;;3.55;;
25207;SDS011;13153;52.316;21.166;2023-10-09T09:44:32;6.50;;;2.95;;
25207;SDS011;13153;52.316;21.166;2023-10-09T09:47:08;5.75;;;2.47;;
25207;SDS011;13153;52.316;21.166;2023-10-09T09:49:41;6.03;;;2.45;;
25207;SDS011;13153;52.316;21.166;2023-10-09T09:52:08;6.63;;;2.90;;
25207;SDS011;13153;52.316;21.166;2023-10-09T09:54:37;3.90;;;2.40;;
25207;SDS011;13153;52.316;21.166;2023-10-09T09:57:05;4.80;;;1.98;;
25207;SDS011;13153;52.316;21.166;2023-10-09T09:59:41;8.38;;;2.50;;
25207;SDS011;13153;52.316;21.166;2023-10-09T10:02:22;6.22;;;2.55;;
25207;SDS011;13153;52.316;21.166;2023-10-09T10:05:12;2.63;;;1.92;;
25207;SDS011;13153;52.316;21.166;2023-10-09T10:07:41;5.07;;;1.80;;
25207;SDS011;13153;52.316;21.166;2023-10-09T10:10:36;5.53;;;2.10;;
25207;SDS011;13153;52.316;21.166;2023-10-09T10:16:10;3.67;;;1.70;;
25207;SDS011;13153;52.316;21.166;2023-10-09T10:18:57;2.13;;;1.55;;
25207;SDS011;13153;52.316;21.166;2023-10-09T10:21:50;4.63;;;1.90;;
25207;SDS011;13153;52.316;21.166;2023-10-09T10:35:18;4.97;;;2.13;;
25207;SDS011;13153;52.316;21.166;2023-10-09T10:37:57;3.55;;;2.05;;
25207;SDS011;13153;52.316;21.166;2023-10-09T10:40:40;3.40;;;2.10;;
25207;SDS011;13153;52.316;21.166;2023-10-09T10:43:16;6.15;;;2.20;;
25207;SDS011;13153;52.316;21.166;2023-10-09T10:46:06;5.22;;;2.22;;
25207;SDS011;13153;52.316;21.166;2023-10-09T10:48:53;3.58;;;2.00;;
25207;SDS011;13153;52.316;21.166;2023-10-09T10:51:26;5.00;;;2.30;;
25207;SDS011;13153;52.316;21.166;2023-10-09T10:54:03;4.20;;;2.17;;
25207;SDS011;13153;52.316;21.166;2023-10-09T10:56:49;7.03;;;3.08;;
25207;SDS011;13153;52.316;21.166;2023-10-09T10:59:16;6.38;;;2.67;;
25207;SDS011;13153;52.316;21.166;2023-10-09T11:01:49;5.72;;;3.38;;
25207;SDS011;13153;52.316;21.166;2023-10-09T11:04:23;4.72;;;2.70;;
25207;SDS011;13153;52.316;21.166;2023-10-09T11:06:57;4.43;;;2.47;;
25207;SDS011;13153;52.316;21.166;2023-10-09T11:09:42;6.57;;;2.20;;
25207;SDS011;13153;52.316;21.166;2023-10-09T11:12:27;5.07;;;2.20;;
25207;SDS011;13153;52.316;21.166;2023-10-09T11:15:13;4.78;;;2.40;;
25207;SDS011;13153;52.316;21.166;2023-10-09T11:18:00;7.07;;;2.50;;
25207;SDS011;13153;52.316;21.166;2023-10-09T11:20:50;6.95;;;3.13;;
25207;SDS011;13153;52.316;21.166;2023-10-09T11:23:42;6.28;;;2.88;;
25207;SDS011;13153;52.316;21.166;2023-10-09T11:26:17;6.47;;;2.70;;
25207;SDS011;13153;52.316;21.166;2023-10-09T11:32:01;6.70;;;2.55;;
25207;SDS011;13153;52.316;21.166;2023-10-09T11:34:34;7.25;;;2.38;;
25207;SDS011;13153;52.316;21.166;2023-10-09T11:37:03;5.82;;;2.53;;
25207;SDS011;13153;52.316;21.166;2023-10-09T11:39:56;5.68;;;2.80;;
25207;SDS011;13153;52.316;21.166;2023-10-09T11:42:27;5.20;;;2.50;;
25207;SDS011;13153;52.316;21.166;2023-10-09T11:45:03;7.30;;;2.72;;
25207;SDS011;13153;52.316;21.166;2023-10-09T11:47:53;5.38;;;3.00;;
25207;SDS011;13153;52.316;21.166;2023-10-09T11:50:45;5.90;;;2.63;;
25207;SDS011;13153;52.316;21.166;2023-10-09T11:53:39;7.03;;;2.77;;
25207;SDS011;13153;52.316;21.166;2023-10-09T11:56:08;4.90;;;2.60;;
25207;SDS011;13153;52.316;21.166;2023-10-09T11:58:39;7.32;;;3.10;;
25207;SDS011;13153;52.316;21.166;2023-10-09T12:01:12;6.47;;;3.03;;
25207;SDS011;13153;52.316;21.166;2023-10-09T12:03:45;6.18;;;2.70;;
25207;SDS011;13153;52.316;21.166;2023-10-09T12:06:15;7.35;;;2.63;;
25207;SDS011;13153;52.316;21.166;2023-10-09T12:08:47;6.82;;;2.70;;
25207;SDS011;13153;52.316;21.166;2023-10-09T12:11:17;6.15;;;2.58;;
25207;SDS011;13153;52.316;21.166;2023-10-09T12:13:54;6.85;;;2.47;;
25207;SDS011;13153;52.316;21.166;2023-10-09T12:16:25;4.72;;;2.85;;
25207;SDS011;13153;52.316;21.166;2023-10-09T12:18:56;5.82;;;2.70;;
25207;SDS011;13153;52.316;21.166;2023-10-09T12:21:23;4.97;;;2.83;;
25207;SDS011;13153;52.316;21.166;2023-10-09T12:23:49;6.07;;;3.20;;
25207;SDS011;13153;52.316;21.166;2023-10-09T12:26:15;5.13;;;3.10;;
25207;SDS011;13153;52.316;21.166;2023-10-09T12:28:41;5.28;;;2.63;;
25207;SDS011;13153;52.316;21.166;2023-10-09T12:31:10;7.00;;;2.92;;
25207;SDS011;13153;52.316;21.166;2023-10-09T12:33:40;5.95;;;2.47;;
25207;SDS011;13153;52.316;21.166;2023-10-09T12:36:16;5.85;;;2.83;;
25207;SDS011;13153;52.316;21.166;2023-10-09T12:38:45;5.65;;;2.67;;
25207;SDS011;13153;52.316;21.166;2023-10-09T12:41:17;5.82;;;3.05;;
25207;SDS011;13153;52.316;21.166;2023-10-09T12:43:53;5.63;;;2.90;;
25207;SDS011;13153;52.316;21.166;2023-10-09T12:46:20;8.65;;;2.97;;
25207;SDS011;13153;52.316;21.166;2023-10-09T12:48:51;6.55;;;3.10;;
25207;SDS011;13153;52.316;21.166;2023-10-09T12:51:19;9.00;;;3.08;;
25207;SDS011;13153;52.316;21.166;2023-10-09T12:53:54;7.88;;;3.00;;
25207;SDS011;13153;52.316;21.166;2023-10-09T12:56:24;6.90;;;3.00;;
25207;SDS011;13153;52.316;21.166;2023-10-09T12:59:02;5.00;;;3.08;;
25207;SDS011;13153;52.316;21.166;2023-10-09T13:01:30;11.82;;;3.63;;
25207;SDS011;13153;52.316;21.166;2023-10-09T13:04:08;7.55;;;3.60;;
25207;SDS011;13153;52.316;21.166;2023-10-09T13:06:41;5.13;;;3.05;;
25207;SDS011;13153;52.316;21.166;2023-10-09T13:09:14;7.97;;;3.38;;
25207;SDS011;13153;52.316;21.166;2023-10-09T13:11:58;7.50;;;2.95;;
25207;SDS011;13153;52.316;21.166;2023-10-09T13:14:25;6.32;;;3.10;;
25207;SDS011;13153;52.316;21.166;2023-10-09T13:16:59;7.03;;;3.00;;
25207;SDS011;13153;52.316;21.166;2023-10-09T13:19:25;8.57;;;3.17;;
25207;SDS011;13153;52.316;21.166;2023-10-09T13:21:51;6.40;;;3.15;;
25207;SDS011;13153;52.316;21.166;2023-10-09T13:24:17;8.10;;;2.97;;
25207;SDS011;13153;52.316;21.166;2023-10-09T13:26:43;9.55;;;3.05;;
25207;SDS011;13153;52.316;21.166;2023-10-09T13:29:16;7.45;;;3.00;;
25207;SDS011;13153;52.316;21.166;2023-10-09T13:31:47;7.05;;;2.60;;
25207;SDS011;13153;52.316;21.166;2023-10-09T13:34:17;5.10;;;2.90;;
25207;SDS011;13153;52.316;21.166;2023-10-09T13:36:43;5.18;;;2.75;;
25207;SDS011;13153;52.316;21.166;2023-10-09T13:39:18;4.75;;;2.67;;
25207;SDS011;13153;52.316;21.166;2023-10-09T13:41:44;4.57;;;2.70;;
25207;SDS011;13153;52.316;21.166;2023-10-09T13:44:11;7.63;;;2.97;;
25207;SDS011;13153;52.316;21.166;2023-10-09T13:46:37;5.40;;;2.75;;
25207;SDS011;13153;52.316;21.166;2023-10-09T13:49:09;6.22;;;2.63;;
25207;SDS011;13153;52.316;21.166;2023-10-09T13:51:42;4.55;;;2.80;;
25207;SDS011;13153;52.316;21.166;2023-10-09T13:54:13;4.93;;;3.00;;
25207;SDS011;13153;52.316;21.166;2023-10-09T13:56:59;5.32;;;2.90;;
25207;SDS011;13153;52.316;21.166;2023-10-09T13:59:29;10.07;;;2.95;;
25207;SDS011;13153;52.316;21.166;2023-10-09T14:01:55;6.50;;;3.20;;
25207;SDS011;13153;52.316;21.166;2023-10-09T14:04:22;8.60;;;3.33;;
25207;SDS011;13153;52.316;21.166;2023-10-09T14:06:48;6.60;;;3.65;;
25207;SDS011;13153;52.316;21.166;2023-10-09T14:09:22;9.93;;;4.05;;
25207;SDS011;13153;52.316;21.166;2023-10-09T14:12:10;6.50;;;3.75;;
25207;SDS011;13153;52.316;21.166;2023-10-09T14:17:12;10.00;;;4.60;;
25207;SDS011;13153;52.316;21.166;2023-10-09T14:19:48;9.13;;;4.68;;
25207;SDS011;13153;52.316;21.166;2023-10-09T14:22:22;11.27;;;4.90;;
25207;SDS011;13153;52.316;21.166;2023-10-09T14:24:52;10.73;;;4.68;;
25207;SDS011;13153;52.316;21.166;2023-10-09T14:27:23;9.75;;;5.25;;
25207;SDS011;13153;52.316;21.166;2023-10-09T14:29:54;11.65;;;5.28;;
25207;SDS011;13153;52.316;21.166;2023-10-09T14:32:23;8.32;;;5.20;;
25207;SDS011;13153;52.316;21.166;2023-10-09T14:34:54;12.25;;;5.30;;
25207;SDS011;13153;52.316;21.166;2023-10-09T14:37:25;10.05;;;5.57;;
25207;SDS011;13153;52.316;21.166;2023-10-09T14:39:52;10.15;;;5.10;;
25207;SDS011;13153;52.316;21.166;2023-10-09T14:42:18;10.43;;;5.03;;
25207;SDS011;13153;52.316;21.166;2023-10-09T14:44:47;12.20;;;5.55;;
25207;SDS011;13153;52.316;21.166;2023-10-09T14:47:15;11.35;;;5.97;;
25207;SDS011;13153;52.316;21.166;2023-10-09T14:49:46;10.95;;;5.88;;
25207;SDS011;13153;52.316;21.166;2023-10-09T14:52:13;13.43;;;5.88;;
25207;SDS011;13153;52.316;21.166;2023-10-09T14:54:44;14.48;;;5.90;;
25207;SDS011;13153;52.316;21.166;2023-10-09T14:57:11;10.95;;;5.68;;
25207;SDS011;13153;52.316;21.166;2023-10-09T14:59:38;13.35;;;5.72;;
25207;SDS011;13153;52.316;21.166;2023-10-09T15:02:05;11.85;;;6.13;;
25207;SDS011;13153;52.316;21.166;2023-10-09T15:04:32;10.27;;;5.60;;
25207;SDS011;13153;52.316;21.166;2023-10-09T15:07:02;12.30;;;5.75;;
25207;SDS011;13153;52.316;21.166;2023-10-09T15:09:31;10.32;;;5.85;;
25207;SDS011;13153;52.316;21.166;2023-10-09T15:11:59;10.50;;;5.25;;
25207;SDS011;13153;52.316;21.166;2023-10-09T15:14:26;11.43;;;5.63;;
25207;SDS011;13153;52.316;21.166;2023-10-09T15:16:51;11.25;;;5.90;;
25207;SDS011;13153;52.316;21.166;2023-10-09T15:19:17;9.57;;;5.65;;
25207;SDS011;13153;52.316;21.166;2023-10-09T15:21:43;14.43;;;6.45;;
25207;SDS011;13153;52.316;21.166;2023-10-09T15:24:10;22.52;;;7.85;;
25207;SDS011;13153;52.316;21.166;2023-10-09T15:26:50;20.75;;;8.10;;
25207;SDS011;13153;52.316;21.166;2023-10-09T15:29:22;23.58;;;8.07;;
25207;SDS011;13153;52.316;21.166;2023-10-09T15:32:00;20.35;;;7.97;;
25207;SDS011;13153;52.316;21.166;2023-10-09T15:34:33;20.42;;;8.23;;
25207;SDS011;13153;52.316;21.166;2023-10-09T15:37:05;27.48;;;11.38;;
25207;SDS011;13153;52.316;21.166;2023-10-09T15:39:32;27.83;;;11.38;;
25207;SDS011;13153;52.316;21.166;2023-10-09T15:42:01;24.48;;;11.30;;
25207;SDS011;13153;52.316;21.166;2023-10-09T15:44:31;26.08;;;11.82;;
25207;SDS011;13153;52.316;21.166;2023-10-09T15:47:03;40.58;;;14.55;;
25207;SDS011;13153;52.316;21.166;2023-10-09T15:49:33;32.50;;;15.07;;